BVLO2: Caney River, Bartlesville, OK

                                SHEF ID:       BVLO2     Caney River above Coon Creek at
STATION TYPE:
Regulating: Stage = 13.00, Flow = 14009

PRECIP STAGE STAGE(2) RIV-FLOW BAT-LOAD
in ft ft cfs volt
Ccp-Rev Ccp-Rev Ccp-Rev Ccp-Rev Ccp-Rev
(America/Chicago)
04/28 00:00 0.00 5.27 ---- 2363 12.73
04/28 01:00 0.00 5.37 ---- 2488 12.73
04/28 02:00 0.00 5.46 ---- 2597 12.65
04/28 03:00 0.00 5.52 ---- 2670 12.65
04/28 04:00 0.00 5.58 ---- 2744 12.65
04/28 05:00 0.00 5.62 ---- 2794 12.65
04/28 06:00 0.00 5.65 ---- 2831 12.65
04/28 07:00 0.00 5.68 ---- 2869 12.57
04/28 08:00 0.00 5.70 ---- 2894 12.65
04/28 09:00 0.00 5.71 ---- 2907 13.05
04/28 10:00 0.00 5.72 ---- 2920 13.21
04/28 11:00 0.00 5.73 ---- 2932 13.29
04/28 12:00 0.00 5.73 ---- 2932 13.53
04/28 13:00 0.00 5.76 ---- 2971 13.13
04/28 14:00 0.00 5.78 ---- 2995 13.05
04/28 15:00 0.00 5.77 ---- 2983 13.53
04/28 16:00 0.00 5.76 ---- 2971 13.44
04/28 17:00 0.00 5.76 ---- 2971 13.37
04/28 18:00 0.00 5.75 ---- 2958 13.29
04/28 19:00 0.00 5.75 ---- 2958 13.29
04/28 20:00 0.00 5.75 ---- 2958 13.21
04/28 21:00 0.00 5.74 ---- 2945 12.89
04/28 22:00 0.00 5.74 ---- 2945 12.73
04/28 23:00 ---- ---- ---- ---- ----
Data processed at Wed 29Apr2026 04:14 GMT

NOTICE: If you are parsing this page

Please convert to using our Data API. Starting early 2026 we will be migrating to: https://water.usace.army.mil with modern pages rendered in JavaScript. When this migration completes you will no longer be able to scrape this page! CWMSDataAPI (CDA)

Timeseries IDs (TSIDs)

TSIDs used from left to right in the data table
BART.Precip-Inc.Total.1Hour.1Hour.Ccp-Rev
BART.Stage.Inst.1Hour.0.Ccp-Rev
BART.Stage-Alt.Inst.1Hour.0.Ccp-Rev
BART.Flow.Inst.1Hour.0.Ccp-Rev
BART.Volt-Battery Load.Inst.1Hour.0.Ccp-Rev

                            

All information presented herein is the property of the government of the United States of America and may be revised or deleted at any time without prior notice. Dissemination of this information without the expressed written consent of the Public Affairs Office, Tulsa District U.S. Army Corps of Engineers is strictly prohibited. These data are gathered electronically and, as presented, have NOT undergone any form of quality control. These data are NOT guaranteed to be valid or correct.